Time;durP1;ratioP1;P1;durP2;ratioP2;P2;SDS_P1;SDS_P2;PMS_P1;PMS_P2;Temp;Humidity;BMP_temperature;BMP_pressure;BME280_temperature;BME280_humidity;BME280_pressure;Samples;Min_cycle;Max_cycle;Signal;HPM_P1;HPM_P2
2022/03/02 00:02:11;;;;;;;14.90;6.82;;;3.30;65.70;;;;;;6227025;28;20120;-83
2022/03/02 00:05:14;;;;;;;15.40;7.25;;;3.30;65.50;;;;;;6226095;28;20719;-81
2022/03/02 00:08:16;;;;;;;15.60;7.13;;;3.40;65.70;;;;;;6224903;28;20046;-82
2022/03/02 00:11:18;;;;;;;22.95;8.93;;;3.40;65.90;;;;;;6224694;28;20148;-80
2022/03/02 00:14:20;;;;;;;16.38;8.00;;;3.50;65.50;;;;;;6224877;28;20128;-84
2022/03/02 00:17:21;;;;;;;13.07;7.00;;;3.50;65.50;;;;;;6225006;28;20060;-82
2022/03/02 00:20:24;;;;;;;25.33;7.68;;;3.60;65.50;;;;;;6226787;28;20046;-80
2022/03/02 00:23:26;;;;;;;18.10;7.97;;;3.60;65.90;;;;;;6226858;28;20049;-82
2022/03/02 00:26:28;;;;;;;19.13;7.90;;;3.60;65.50;;;;;;6223922;28;20508;-81
2022/03/02 00:29:30;;;;;;;14.50;6.72;;;3.60;66.10;;;;;;6225818;28;20049;-82
2022/03/02 00:32:32;;;;;;;21.23;7.22;;;3.50;66.40;;;;;;6225044;28;20101;-81
2022/03/02 00:35:35;;;;;;;20.55;8.05;;;3.40;66.40;;;;;;6225033;28;20054;-81
2022/03/02 00:38:37;;;;;;;19.98;7.82;;;3.30;66.80;;;;;;6224473;28;20554;-83
2022/03/02 00:41:39;;;;;;;23.23;7.90;;;3.20;67.00;;;;;;6224854;28;20140;-83
2022/03/02 00:44:41;;;;;;;13.02;6.68;;;3.10;67.20;;;;;;6224278;28;20048;-81
2022/03/02 00:47:43;;;;;;;14.23;6.90;;;3.00;67.60;;;;;;6227064;28;20045;-82
2022/03/02 00:50:47;;;;;;;14.45;6.10;;;3.00;68.10;;;;;;6226893;28;20527;-83
2022/03/02 00:53:49;;;;;;;11.63;6.32;;;2.90;68.10;;;;;;6224809;28;20042;-82
2022/03/02 00:56:52;;;;;;;14.80;5.93;;;2.80;68.30;;;;;;6223678;28;20049;-82
2022/03/02 00:59:53;;;;;;;17.77;7.38;;;2.70;68.20;;;;;;6227778;28;20436;-79
2022/03/02 01:02:55;;;;;;;12.10;6.53;;;2.70;68.50;;;;;;6225872;28;20064;-82
2022/03/02 01:05:59;;;;;;;17.90;8.38;;;2.60;68.50;;;;;;6224167;28;20041;-83
2022/03/02 01:09:01;;;;;;;21.15;8.70;;;2.60;68.90;;;;;;6224835;28;20050;-82
2022/03/02 01:12:03;;;;;;;15.13;7.20;;;2.50;68.90;;;;;;6224917;28;20049;-80
2022/03/02 01:15:06;;;;;;;13.77;7.13;;;2.40;69.60;;;;;;6225035;28;20057;-81
2022/03/02 01:18:08;;;;;;;14.35;6.50;;;2.40;70.60;;;;;;6224770;28;20068;-82
2022/03/02 01:21:11;;;;;;;17.15;6.50;;;2.30;70.40;;;;;;6225349;28;20042;-82
2022/03/02 01:24:13;;;;;;;16.45;7.75;;;2.20;70.80;;;;;;6230028;28;20045;-81
2022/03/02 01:27:15;;;;;;;27.02;7.28;;;2.20;70.60;;;;;;6227882;28;20052;-82
2022/03/02 01:30:17;;;;;;;12.93;7.25;;;2.10;70.50;;;;;;6229131;28;20049;-81
2022/03/02 01:33:19;;;;;;;17.25;6.97;;;2.00;70.60;;;;;;6229363;28;20060;-82
2022/03/02 01:36:22;;;;;;;18.75;7.60;;;2.00;71.10;;;;;;6228297;28;20041;-83
2022/03/02 01:39:24;;;;;;;17.70;8.82;;;1.90;70.90;;;;;;6229104;28;20056;-81
2022/03/02 01:42:26;;;;;;;17.67;8.07;;;1.80;72.10;;;;;;6229076;28;20125;-81
2022/03/02 01:45:28;;;;;;;24.52;8.45;;;1.70;72.80;;;;;;6239059;28;20053;-81
2022/03/02 01:48:29;;;;;;;17.38;8.25;;;1.70;72.90;;;;;;6235866;28;20042;-82
2022/03/02 01:51:33;;;;;;;19.67;7.95;;;1.60;72.60;;;;;;6230548;28;20049;-82
2022/03/02 01:54:35;;;;;;;14.77;6.80;;;1.50;73.30;;;;;;6229310;28;20503;-81
2022/03/02 01:57:37;;;;;;;39.83;9.13;;;1.40;73.50;;;;;;6229600;28;20046;-82
2022/03/02 02:00:39;;;;;;;15.95;8.30;;;1.30;73.40;;;;;;6228820;28;20056;-82
2022/03/02 02:03:41;;;;;;;19.10;7.95;;;1.30;73.90;;;;;;6219656;28;20061;-81
2022/03/02 02:06:47;;;;;;;17.05;7.22;;;1.20;74.10;;;;;;6233062;28;20046;-82
2022/03/02 02:09:49;;;;;;;17.70;7.53;;;1.20;74.20;;;;;;6233623;28;20054;-83
2022/03/02 02:12:50;;;;;;;16.80;8.27;;;1.20;74.50;;;;;;6233995;28;20045;-83
2022/03/02 02:15:54;;;;;;;14.30;8.07;;;1.20;74.50;;;;;;6234550;28;20132;-82
2022/03/02 02:18:56;;;;;;;17.42;7.22;;;1.20;74.50;;;;;;6234195;28;20060;-82
2022/03/02 02:21:59;;;;;;;22.50;7.88;;;1.10;74.40;;;;;;6232421;28;20046;-82
2022/03/02 02:25:00;;;;;;;14.88;7.88;;;1.10;74.30;;;;;;6236159;28;20062;-81
2022/03/02 02:28:03;;;;;;;17.70;8.75;;;1.10;74.70;;;;;;6233787;28;20511;-81
2022/03/02 02:31:05;;;;;;;19.17;7.10;;;1.00;75.00;;;;;;6233378;28;20050;-81
2022/03/02 02:34:07;;;;;;;16.42;7.30;;;1.00;74.90;;;;;;6231992;28;20046;-82
2022/03/02 02:37:13;;;;;;;17.25;8.00;;;1.00;74.70;;;;;;6234097;28;20069;-81
2022/03/02 02:40:16;;;;;;;17.92;7.50;;;0.90;75.00;;;;;;6232701;28;20046;-82
2022/03/02 02:43:20;;;;;;;14.38;8.68;;;0.90;75.90;;;;;;6235020;28;20050;-82
2022/03/02 02:46:22;;;;;;;19.00;7.25;;;0.90;76.10;;;;;;6235473;28;20077;-82
2022/03/02 02:49:25;;;;;;;19.15;7.57;;;0.80;76.60;;;;;;6237351;28;20050;-82
2022/03/02 02:52:28;;;;;;;14.65;6.78;;;0.80;76.50;;;;;;6236552;28;20052;-82
2022/03/02 02:55:31;;;;;;;18.67;7.32;;;0.70;77.20;;;;;;6237682;28;20110;-82
2022/03/02 02:58:32;;;;;;;19.80;8.80;;;0.70;76.80;;;;;;6237725;28;20113;-81
2022/03/02 03:01:34;;;;;;;20.55;6.88;;;0.60;76.50;;;;;;6239335;28;20132;-82
2022/03/02 03:04:36;;;;;;;17.75;8.32;;;0.50;76.40;;;;;;6238912;28;20045;-82
2022/03/02 03:07:40;;;;;;;15.40;6.93;;;0.50;77.10;;;;;;6240505;28;20066;-82
2022/03/02 03:10:43;;;;;;;15.70;7.25;;;0.40;77.70;;;;;;6247900;28;20049;-82
2022/03/02 03:13:44;;;;;;;13.10;7.28;;;0.40;78.00;;;;;;6237051;28;20042;-81
2022/03/02 03:16:46;;;;;;;18.05;9.07;;;0.40;78.60;;;;;;6234643;28;20068;-81
2022/03/02 03:19:48;;;;;;;15.30;7.10;;;0.30;78.60;;;;;;6234851;28;20073;-82
2022/03/02 03:22:52;;;;;;;17.15;7.97;;;0.30;78.70;;;;;;6235601;28;20054;-81
2022/03/02 03:25:54;;;;;;;14.07;7.05;;;0.30;78.80;;;;;;6235819;28;20126;-81
2022/03/02 03:28:55;;;;;;;16.15;7.55;;;0.20;78.40;;;;;;6234248;28;20048;-81
2022/03/02 03:31:57;;;;;;;15.13;8.25;;;0.20;79.10;;;;;;6233095;28;20046;-81
2022/03/02 03:35:00;;;;;;;14.63;6.43;;;0.20;79.20;;;;;;6232542;28;20538;-81
2022/03/02 03:38:04;;;;;;;12.95;7.22;;;0.10;79.30;;;;;;6233972;28;20042;-83
2022/03/02 03:41:05;;;;;;;17.00;7.35;;;0.10;79.00;;;;;;6235058;28;20053;-82
2022/03/02 03:44:07;;;;;;;18.17;7.30;;;0.10;78.70;;;;;;6232224;28;20129;-81
2022/03/02 03:47:09;;;;;;;14.05;6.45;;;0.00;78.90;;;;;;6233484;28;20057;-82
2022/03/02 03:50:12;;;;;;;13.23;6.45;;;0.00;79.30;;;;;;6232835;28;20071;-81
2022/03/02 03:53:15;;;;;;;17.60;7.78;;;0.00;79.70;;;;;;6231373;28;20041;-81
2022/03/02 03:56:16;;;;;;;17.55;7.28;;;0.00;79.90;;;;;;6232748;28;20120;-81
2022/03/02 03:59:18;;;;;;;18.95;7.80;;;-0.10;80.00;;;;;;6233406;28;20076;-81
2022/03/02 04:02:20;;;;;;;14.75;6.25;;;-0.10;80.40;;;;;;6231356;28;20199;-81
2022/03/02 04:05:22;;;;;;;19.05;6.80;;;-0.10;80.60;;;;;;6230992;28;20125;-82
2022/03/02 04:08:25;;;;;;;16.70;7.18;;;-0.10;81.00;;;;;;6232052;28;20060;-81
2022/03/02 04:11:27;;;;;;;21.80;7.43;;;-0.20;80.20;;;;;;6232431;28;20174;-81
2022/03/02 04:14:28;;;;;;;22.13;8.30;;;-0.20;80.20;;;;;;6230242;28;20041;-81
2022/03/02 04:17:30;;;;;;;19.30;7.70;;;-0.30;80.00;;;;;;6229456;28;20073;-82
2022/03/02 04:20:32;;;;;;;14.57;6.63;;;-0.30;80.20;;;;;;6230176;28;20400;-81
2022/03/02 04:23:35;;;;;;;20.17;7.72;;;-0.30;80.00;;;;;;6229492;28;20056;-81
2022/03/02 04:26:37;;;;;;;19.85;7.45;;;-0.30;80.20;;;;;;6229632;28;20046;-81
2022/03/02 04:29:39;;;;;;;18.25;8.18;;;-0.40;80.50;;;;;;6228554;28;20073;-82
2022/03/02 04:32:41;;;;;;;14.02;6.60;;;-0.40;81.20;;;;;;6229735;28;20045;-82
2022/03/02 04:35:43;;;;;;;16.25;8.10;;;-0.40;81.60;;;;;;6229842;28;20054;-81
2022/03/02 04:38:46;;;;;;;19.20;7.95;;;-0.40;81.30;;;;;;6230791;28;20042;-81
2022/03/02 04:41:48;;;;;;;16.15;5.90;;;-0.50;81.90;;;;;;6229435;28;20046;-81
2022/03/02 04:44:50;;;;;;;18.33;7.38;;;-0.50;82.60;;;;;;6229635;28;20046;-81
2022/03/02 04:47:51;;;;;;;14.18;7.18;;;-0.50;83.00;;;;;;6231376;28;20133;-81
2022/03/02 04:50:53;;;;;;;16.98;6.85;;;-0.50;82.90;;;;;;6230559;28;20180;-81
2022/03/02 04:53:56;;;;;;;18.10;7.78;;;-0.50;83.10;;;;;;6229644;28;20062;-81
2022/03/02 04:56:58;;;;;;;20.67;7.82;;;-0.50;82.30;;;;;;6229529;28;20042;-82
2022/03/02 05:00:00;;;;;;;20.20;7.93;;;-0.50;82.30;;;;;;6230269;28;20431;-82
2022/03/02 05:03:05;;;;;;;19.05;6.45;;;-0.60;82.70;;;;;;6229757;28;20137;-81
2022/03/02 05:06:07;;;;;;;14.60;6.70;;;-0.60;82.60;;;;;;6229982;28;20108;-81
2022/03/02 05:09:10;;;;;;;15.93;6.43;;;-0.50;82.00;;;;;;6239845;28;20046;-82
2022/03/02 05:12:11;;;;;;;14.20;6.10;;;-0.50;82.60;;;;;;6234134;28;20108;-81
2022/03/02 05:15:15;;;;;;;11.40;6.20;;;-0.50;81.80;;;;;;6233551;28;20081;-81
2022/03/02 05:18:16;;;;;;;15.10;6.40;;;-0.50;82.40;;;;;;6243133;28;20038;-81
2022/03/02 05:21:18;;;;;;;13.27;5.97;;;-0.50;82.30;;;;;;6246230;28;20065;-81
2022/03/02 05:24:21;;;;;;;16.00;5.70;;;-0.50;82.50;;;;;;6231019;28;20125;-82
2022/03/02 05:27:24;;;;;;;16.08;7.15;;;-0.40;82.00;;;;;;6230512;28;20054;-82
2022/03/02 05:30:25;;;;;;;14.70;6.90;;;-0.30;81.50;;;;;;6231313;28;20078;-81
2022/03/02 05:33:27;;;;;;;13.50;6.43;;;-0.30;82.00;;;;;;6231200;28;20717;-82
2022/03/02 05:36:29;;;;;;;14.13;7.22;;;-0.30;81.80;;;;;;6229669;28;20069;-82
2022/03/02 05:39:32;;;;;;;15.85;6.43;;;-0.30;81.90;;;;;;6227564;28;20141;-81
2022/03/02 05:42:34;;;;;;;15.82;6.57;;;-0.30;82.00;;;;;;6226654;28;20117;-82
2022/03/02 05:45:36;;;;;;;13.77;5.55;;;-0.30;81.90;;;;;;6226311;28;20139;-80
2022/03/02 05:48:37;;;;;;;14.65;6.60;;;-0.40;81.80;;;;;;6226704;28;20128;-82
2022/03/02 05:51:40;;;;;;;11.15;5.20;;;-0.40;82.10;;;;;;6226206;28;20053;-81
2022/03/02 05:54:43;;;;;;;21.27;6.60;;;-0.50;83.10;;;;;;6226678;28;20193;-81
2022/03/02 05:57:45;;;;;;;16.17;5.75;;;-0.50;83.60;;;;;;6226333;28;20068;-81
2022/03/02 06:00:47;;;;;;;13.88;5.93;;;-0.50;83.50;;;;;;6226429;28;20117;-81
2022/03/02 06:03:49;;;;;;;13.43;6.18;;;-0.60;83.40;;;;;;6226955;28;20049;-81
2022/03/02 06:06:51;;;;;;;13.30;6.10;;;-0.60;83.50;;;;;;6226740;28;20049;-82
2022/03/02 06:09:54;;;;;;;11.77;4.80;;;-0.60;83.60;;;;;;6229907;28;20046;-79
2022/03/02 06:12:57;;;;;;;14.43;5.78;;;-0.60;83.40;;;;;;6230150;28;20554;-80
2022/03/02 06:15:59;;;;;;;22.10;6.45;;;-0.50;83.20;;;;;;6230120;28;20050;-82
2022/03/02 06:19:02;;;;;;;14.77;7.00;;;-0.50;82.80;;;;;;6230161;28;20053;-81
2022/03/02 06:22:06;;;;;;;16.05;6.60;;;-0.50;83.10;;;;;;6230094;28;20407;-82
2022/03/02 06:25:10;;;;;;;16.50;6.85;;;-0.50;82.80;;;;;;6229830;28;20046;-81
2022/03/02 06:28:12;;;;;;;15.65;6.22;;;-0.40;83.10;;;;;;6230160;28;20052;-81
2022/03/02 06:31:14;;;;;;;10.98;6.03;;;-0.40;83.20;;;;;;6230641;28;20096;-82
2022/03/02 06:34:15;;;;;;;13.00;6.35;;;-0.40;83.10;;;;;;6228598;28;20070;-80
2022/03/02 06:37:18;;;;;;;11.57;4.70;;;-0.40;83.00;;;;;;6228661;28;20511;-80
2022/03/02 06:40:21;;;;;;;14.23;6.47;;;-0.30;83.90;;;;;;6229546;28;20147;-80
2022/03/02 06:43:26;;;;;;;11.70;5.05;;;-0.20;83.50;;;;;;6229586;28;20050;-82
2022/03/02 06:46:39;;;;;;;11.43;6.35;;;-0.10;83.30;;;;;;6227693;28;20111;-81
2022/03/02 06:49:59;;;;;;;13.35;6.32;;;0.00;83.00;;;;;;6228122;28;20053;-81
2022/03/02 06:53:03;;;;;;;12.50;5.80;;;0.10;82.80;;;;;;6228363;28;20042;-82
2022/03/02 06:56:08;;;;;;;9.77;5.45;;;0.20;83.00;;;;;;6228256;28;20111;-81
2022/03/02 06:59:13;;;;;;;12.38;6.72;;;0.40;82.60;;;;;;6229336;28;20146;-80
2022/03/02 07:02:25;;;;;;;11.80;6.38;;;0.60;83.10;;;;;;6228477;28;20056;-80
2022/03/02 07:05:26;;;;;;;16.15;7.47;;;0.80;82.10;;;;;;6227883;28;20530;-80
2022/03/02 07:08:31;;;;;;;16.83;7.50;;;1.10;81.60;;;;;;6228124;28;20124;-80
2022/03/02 07:11:35;;;;;;;17.08;4.68;;;1.30;81.50;;;;;;6228432;28;20049;-81
2022/03/02 07:14:37;;;;;;;20.23;5.05;;;1.60;80.40;;;;;;6229882;28;20058;-81
2022/03/02 07:17:39;;;;;;;25.02;5.47;;;1.90;79.70;;;;;;6229046;28;20468;-82
2022/03/02 07:20:42;;;;;;;13.98;6.05;;;2.30;78.80;;;;;;6229491;28;20049;-80
2022/03/02 07:23:52;;;;;;;18.42;5.57;;;2.50;78.90;;;;;;6230380;28;20046;-82
2022/03/02 07:26:58;;;;;;;18.83;6.68;;;2.80;78.00;;;;;;6229779;28;20060;-81
2022/03/02 07:30:01;;;;;;;14.98;6.50;;;3.00;77.60;;;;;;6228578;28;20125;-81
2022/03/02 07:33:04;;;;;;;9.88;5.40;;;3.20;76.80;;;;;;6229207;28;20104;-82
2022/03/02 07:36:08;;;;;;;11.15;5.20;;;3.30;76.00;;;;;;6228109;28;20393;-82
2022/03/02 07:39:10;;;;;;;10.02;5.28;;;3.50;74.90;;;;;;6228893;28;20053;-81
2022/03/02 07:42:14;;;;;;;16.77;5.95;;;3.70;73.60;;;;;;6228226;28;20673;-81
2022/03/02 07:45:16;;;;;;;12.88;6.35;;;3.90;73.20;;;;;;6227870;28;20046;-81
2022/03/02 07:48:18;;;;;;;21.48;8.02;;;4.00;72.60;;;;;;6228549;28;20053;-81
2022/03/02 07:51:22;;;;;;;17.20;8.48;;;4.10;72.40;;;;;;6229075;28;20550;-81
2022/03/02 07:54:26;;;;;;;17.23;7.78;;;4.20;71.80;;;;;;6228646;28;20515;-82
2022/03/02 07:57:31;;;;;;;15.60;6.57;;;4.40;71.40;;;;;;6228085;28;20081;-81
2022/03/02 08:00:33;;;;;;;14.52;7.05;;;4.50;71.20;;;;;;6228908;28;20133;-80
2022/03/02 08:03:38;;;;;;;21.52;8.20;;;4.70;70.30;;;;;;6228175;28;20108;-82
2022/03/02 08:06:41;;;;;;;12.25;7.28;;;4.90;69.80;;;;;;6228236;28;20057;-81
2022/03/02 08:09:43;;;;;;;18.88;9.02;;;5.20;69.00;;;;;;6228735;28;20132;-81
2022/03/02 08:12:47;;;;;;;19.27;8.02;;;5.50;68.10;;;;;;6227457;28;20108;-81
2022/03/02 08:15:51;;;;;;;13.30;7.45;;;5.90;67.20;;;;;;6228490;28;20056;-81
2022/03/02 08:18:52;;;;;;;21.52;10.82;;;6.10;66.20;;;;;;6227399;28;20054;-82
2022/03/02 08:21:58;;;;;;;17.45;8.48;;;6.40;64.80;;;;;;6227354;28;20507;-82
2022/03/02 08:25:07;;;;;;;20.27;9.10;;;6.50;64.60;;;;;;6227027;28;20046;-81
2022/03/02 08:28:10;;;;;;;17.70;9.02;;;6.50;64.50;;;;;;6227839;28;20420;-82
2022/03/02 08:31:13;;;;;;;15.18;7.88;;;6.60;64.50;;;;;;6227485;28;20045;-81
2022/03/02 08:34:15;;;;;;;22.05;9.02;;;6.60;64.40;;;;;;6227701;28;20064;-82
2022/03/02 08:37:18;;;;;;;17.60;9.65;;;6.70;64.50;;;;;;6227884;28;20056;-82
2022/03/02 08:40:20;;;;;;;18.75;8.82;;;6.80;64.10;;;;;;6228150;28;20049;-82
2022/03/02 08:43:23;;;;;;;19.05;9.00;;;6.80;63.70;;;;;;6228271;28;20081;-81
2022/03/02 08:46:25;;;;;;;15.68;7.90;;;6.90;63.60;;;;;;6226748;28;20056;-82
2022/03/02 08:49:27;;;;;;;21.20;8.95;;;6.90;64.10;;;;;;6228666;28;20132;-82
2022/03/02 08:52:33;;;;;;;14.48;7.60;;;7.00;62.80;;;;;;6229824;28;20188;-81
2022/03/02 08:59:47;;;;;;;18.63;8.88;;;7.20;61.00;;;;;;6226835;28;20092;-80
2022/03/02 09:07:00;;;;;;;18.02;9.13;;;7.50;60.70;;;;;;6208621;28;20129;-82
2022/03/02 09:10:02;;;;;;;14.68;8.55;;;7.50;60.20;;;;;;6225473;28;20046;-78
2022/03/02 09:13:05;;;;;;;16.92;9.68;;;7.50;60.30;;;;;;6222807;28;20140;-79
2022/03/02 09:16:26;;;;;;;20.08;9.95;;;7.50;60.40;;;;;;6231516;28;20120;-79
2022/03/02 09:19:35;;;;;;;34.17;13.30;;;7.60;60.50;;;;;;6225233;28;20113;-79
2022/03/02 09:22:47;;;;;;;146.57;44.92;;;7.60;60.60;;;;;;6225314;28;20053;-79
2022/03/02 09:25:52;;;;;;;126.88;39.58;;;7.60;60.60;;;;;;6220550;28;20046;-79
2022/03/02 09:28:53;;;;;;;47.63;18.63;;;7.70;60.60;;;;;;6229944;28;20068;-78
2022/03/02 09:31:58;;;;;;;90.30;33.45;;;7.80;60.10;;;;;;6227485;28;20069;-79
2022/03/02 09:35:01;;;;;;;46.88;22.52;;;8.00;59.60;;;;;;6222897;28;20049;-80
2022/03/02 09:38:03;;;;;;;21.30;11.15;;;8.10;58.90;;;;;;6226953;28;20070;-80
2022/03/02 09:41:08;;;;;;;16.85;9.13;;;8.20;58.70;;;;;;6226864;28;20515;-80
2022/03/02 09:44:12;;;;;;;19.00;9.07;;;8.40;57.60;;;;;;6231201;28;20077;-79
2022/03/02 09:47:21;;;;;;;14.68;7.55;;;8.40;57.10;;;;;;6229335;28;20137;-80
2022/03/02 09:50:25;;;;;;;13.55;8.05;;;8.50;56.50;;;;;;6227963;28;20050;-80
2022/03/02 09:53:32;;;;;;;19.58;8.43;;;8.50;56.10;;;;;;6230710;28;20100;-80
2022/03/02 09:56:36;;;;;;;18.30;9.18;;;8.70;56.10;;;;;;6236528;28;20045;-80
2022/03/02 09:59:41;;;;;;;17.75;8.95;;;8.90;56.00;;;;;;6244706;28;20047;-79
2022/03/02 10:02:47;;;;;;;19.13;9.10;;;9.40;69.10;;;;;;6254751;28;20046;-79
2022/03/02 10:05:49;;;;;;;13.80;7.63;;;10.00;65.60;;;;;;6253527;28;20478;-79
2022/03/02 10:08:53;;;;;;;16.17;8.02;;;10.60;62.20;;;;;;6254037;28;20200;-79
2022/03/02 10:11:56;;;;;;;16.52;9.07;;;11.00;59.00;;;;;;6255079;28;20053;-79
2022/03/02 10:14:58;;;;;;;19.38;10.05;;;11.30;53.50;;;;;;6254148;28;20072;-79
2022/03/02 10:18:04;;;;;;;18.30;9.65;;;11.20;51.60;;;;;;6254648;28;20045;-81
2022/03/02 10:21:06;;;;;;;16.45;8.52;;;11.20;51.40;;;;;;6254339;28;20155;-81
2022/03/02 10:24:13;;;;;;;21.85;9.80;;;11.20;50.30;;;;;;6254586;28;20044;-81
2022/03/02 10:27:34;;;;;;;21.40;10.50;;;11.10;49.70;;;;;;6246029;28;20050;-80
2022/03/02 10:30:39;;;;;;;16.95;8.70;;;11.10;49.00;;;;;;6231205;28;20050;-79
2022/03/02 10:33:47;;;;;;;17.50;9.15;;;11.20;48.80;;;;;;6228863;28;20085;-79
2022/03/02 10:37:01;;;;;;;23.38;9.50;;;11.20;47.80;;;;;;6228727;28;20046;-81
2022/03/02 10:40:11;;;;;;;17.23;8.93;;;11.20;47.20;;;;;;6228746;28;20641;-80
2022/03/02 10:43:18;;;;;;;20.52;8.57;;;11.20;47.20;;;;;;6229602;28;20120;-80
2022/03/02 10:46:22;;;;;;;15.45;8.07;;;11.30;47.10;;;;;;6216963;28;20046;-80
2022/03/02 10:49:28;;;;;;;19.48;8.10;;;11.30;47.20;;;;;;6228410;28;20100;-80
2022/03/02 10:52:29;;;;;;;19.45;8.70;;;11.30;46.90;;;;;;6228624;28;20046;-80
2022/03/02 10:55:32;;;;;;;16.40;7.93;;;11.40;46.60;;;;;;6227359;28;20495;-80
2022/03/02 10:58:36;;;;;;;23.52;9.80;;;11.40;46.10;;;;;;6242637;28;20044;-80
2022/03/02 11:01:38;;;;;;;22.15;9.20;;;11.50;45.40;;;;;;6252636;28;20421;-80
2022/03/02 11:04:44;;;;;;;19.35;9.70;;;11.50;45.30;;;;;;6251807;28;20048;-79
2022/03/02 11:07:47;;;;;;;18.98;8.65;;;11.50;45.00;;;;;;6251519;28;20503;-79
2022/03/02 11:10:50;;;;;;;17.00;8.32;;;11.40;45.20;;;;;;6253742;28;20128;-81
2022/03/02 11:13:53;;;;;;;15.25;8.35;;;11.50;45.00;;;;;;6239453;28;20133;-81
2022/03/02 11:17:13;;;;;;;14.88;7.68;;;11.40;44.90;;;;;;6227057;28;20065;-80
2022/03/02 11:20:16;;;;;;;18.40;8.60;;;11.40;45.00;;;;;;6247729;28;20045;-78
2022/03/02 11:23:23;;;;;;;14.15;7.95;;;11.50;45.20;;;;;;6254253;28;20053;-81
2022/03/02 11:26:27;;;;;;;20.65;9.57;;;11.50;44.50;;;;;;6244576;28;20049;-80
2022/03/02 11:29:31;;;;;;;25.60;11.50;;;11.50;44.60;;;;;;6244487;28;20447;-79
2022/03/02 11:32:34;;;;;;;34.20;13.93;;;11.60;44.50;;;;;;6251290;28;20049;-79
2022/03/02 11:35:38;;;;;;;17.20;9.38;;;11.90;44.00;;;;;;6252642;28;20499;-81
2022/03/02 11:38:43;;;;;;;19.52;9.40;;;12.20;43.20;;;;;;6253592;28;20136;-80
2022/03/02 11:41:50;;;;;;;17.42;9.50;;;12.50;43.10;;;;;;6252576;28;20091;-80
2022/03/02 11:44:53;;;;;;;22.92;11.43;;;12.90;42.10;;;;;;6251861;28;20053;-80
2022/03/02 11:47:57;;;;;;;19.38;8.07;;;13.10;41.20;;;;;;6250543;28;20053;-80
2022/03/02 11:51:06;;;;;;;19.83;8.65;;;13.30;40.70;;;;;;6252519;28;20046;-80
2022/03/02 11:54:09;;;;;;;16.98;7.90;;;13.40;40.60;;;;;;6250725;28;20049;-80
2022/03/02 11:57:12;;;;;;;16.90;8.40;;;13.60;40.00;;;;;;6253169;28;20128;-79
2022/03/02 12:00:17;;;;;;;15.65;8.00;;;13.80;39.50;;;;;;6250302;28;20042;-79
2022/03/02 12:03:19;;;;;;;29.45;10.82;;;14.00;39.00;;;;;;6254692;28;20050;-79
2022/03/02 12:06:22;;;;;;;24.73;12.15;;;14.20;38.80;;;;;;6251808;28;20041;-79
2022/03/02 12:09:30;;;;;;;16.67;8.45;;;14.40;38.50;;;;;;6252463;28;20037;-79
2022/03/02 12:12:40;;;;;;;15.87;8.90;;;14.50;38.20;;;;;;6251083;28;20411;-79
2022/03/02 12:15:43;;;;;;;24.08;9.23;;;14.50;38.00;;;;;;6251746;28;20056;-81
2022/03/02 12:18:45;;;;;;;17.83;8.18;;;14.50;37.70;;;;;;6253150;28;20450;-81
2022/03/02 12:21:49;;;;;;;19.65;8.68;;;14.40;37.60;;;;;;6252241;28;20519;-82
2022/03/02 12:24:51;;;;;;;16.70;8.02;;;14.30;37.40;;;;;;6231118;28;20451;-81
2022/03/02 12:27:58;;;;;;;12.77;7.72;;;14.20;37.60;;;;;;6236616;28;20054;-81
2022/03/02 12:31:00;;;;;;;16.20;8.60;;;14.10;37.60;;;;;;6241962;28;20042;-80
2022/03/02 12:34:11;;;;;;;20.50;10.20;;;14.10;37.90;;;;;;6203716;28;20154;-81
2022/03/02 12:37:16;;;;;;;17.88;9.02;;;13.90;38.00;;;;;;6202916;28;20043;-81
2022/03/02 12:40:18;;;;;;;27.88;13.98;;;13.80;38.10;;;;;;6202231;28;20572;-81
2022/03/02 12:43:20;;;;;;;57.95;30.13;;;13.50;38.10;;;;;;6203531;28;20061;-81
2022/03/02 12:46:22;;;;;;;21.33;9.57;;;13.20;38.70;;;;;;6205535;28;20112;-80
2022/03/02 12:49:26;;;;;;;14.45;8.52;;;13.10;39.20;;;;;;6227610;28;20042;-80
2022/03/02 12:52:29;;;;;;;19.75;9.18;;;13.10;39.60;;;;;;6232085;28;20124;-81
2022/03/02 12:55:31;;;;;;;18.05;8.77;;;13.00;39.60;;;;;;6225629;28;20055;-80
2022/03/02 12:58:33;;;;;;;18.35;9.77;;;12.90;39.90;;;;;;6239809;28;20037;-81
2022/03/02 13:01:35;;;;;;;16.35;9.05;;;12.90;40.20;;;;;;6253273;28;20059;-83
2022/03/02 13:04:46;;;;;;;20.88;11.02;;;12.70;40.10;;;;;;6252252;28;20060;-82
2022/03/02 13:08:12;;;;;;;19.23;9.95;;;12.70;40.50;;;;;;6251258;28;20058;-82
2022/03/02 13:11:23;;;;;;;19.33;9.50;;;12.60;40.40;;;;;;6249840;28;20052;-80
2022/03/02 13:14:32;;;;;;;17.27;9.02;;;12.50;40.10;;;;;;6248515;28;20049;-80
2022/03/02 13:17:34;;;;;;;20.42;9.23;;;12.40;39.50;;;;;;6222308;28;20053;-81
2022/03/02 13:20:38;;;;;;;144.27;45.72;;;12.10;39.20;;;;;;6215931;28;20049;-80
2022/03/02 13:24:00;;;;;;;36.15;16.90;;;11.90;39.90;;;;;;6206693;28;20054;-79
2022/03/02 13:27:12;;;;;;;38.42;19.48;;;11.70;40.00;;;;;;6239754;28;20049;-82
2022/03/02 13:30:14;;;;;;;20.10;10.05;;;11.60;40.80;;;;;;6252112;28;20576;-80
2022/03/02 13:33:16;;;;;;;15.52;9.18;;;11.80;41.00;;;;;;6256462;28;20538;-82
2022/03/02 13:36:33;;;;;;;18.55;8.35;;;11.90;41.00;;;;;;6256064;28;20051;-80
2022/03/02 13:39:46;;;;;;;17.10;9.38;;;12.10;40.30;;;;;;6244496;28;20045;-80
2022/03/02 13:42:50;;;;;;;17.70;9.27;;;12.10;40.80;;;;;;6231187;28;20061;-79
2022/03/02 13:46:17;;;;;;;20.98;8.82;;;12.00;39.80;;;;;;6227484;28;20061;-80
2022/03/02 13:49:19;;;;;;;17.67;8.70;;;11.80;40.00;;;;;;6226611;28;20054;-79
2022/03/02 13:52:41;;;;;;;18.92;9.90;;;11.70;40.50;;;;;;6229642;28;20045;-79
2022/03/02 13:55:45;;;;;;;21.20;9.02;;;11.70;41.10;;;;;;6228507;28;20530;-79
2022/03/02 13:58:49;;;;;;;22.80;9.43;;;11.70;42.10;;;;;;6229012;28;20050;-79
2022/03/02 14:01:53;;;;;;;17.42;9.38;;;11.70;41.50;;;;;;6257670;28;20057;-80
2022/03/02 14:04:54;;;;;;;20.25;9.50;;;11.70;41.20;;;;;;6230697;28;20049;-80
2022/03/02 14:08:05;;;;;;;16.45;9.30;;;11.70;41.80;;;;;;6259354;22;20168;-83
2022/03/02 14:11:08;;;;;;;22.95;10.85;;;11.60;42.10;;;;;;6252436;28;20478;-80
2022/03/02 14:14:13;;;;;;;17.83;8.68;;;11.70;42.50;;;;;;6253458;28;20041;-79
2022/03/02 14:17:14;;;;;;;15.30;7.95;;;11.70;42.60;;;;;;6252515;28;20101;-80
2022/03/02 14:20:24;;;;;;;26.20;10.20;;;11.80;42.70;;;;;;6252616;28;20828;-82
2022/03/02 14:23:26;;;;;;;17.63;9.30;;;11.70;42.40;;;;;;6253742;28;20079;-79
2022/03/02 14:26:29;;;;;;;23.67;11.98;;;11.70;42.80;;;;;;6258104;28;20171;-80
2022/03/02 14:29:33;;;;;;;62.75;23.83;;;11.70;43.20;;;;;;6275236;28;20529;-80
2022/03/02 14:32:37;;;;;;;93.40;29.75;;;11.70;43.50;;;;;;6277040;28;20045;-81
2022/03/02 14:35:39;;;;;;;27.92;15.30;;;11.70;43.40;;;;;;6277761;28;20127;-80
2022/03/02 14:38:41;;;;;;;23.70;17.45;;;11.70;43.00;;;;;;6276690;28;20140;-81
2022/03/02 14:41:44;;;;;;;26.45;12.98;;;11.60;43.40;;;;;;6277039;28;20053;-79
2022/03/02 14:44:46;;;;;;;19.00;9.07;;;11.50;43.30;;;;;;6276849;28;20049;-79
2022/03/02 14:47:50;;;;;;;18.13;9.88;;;11.50;44.00;;;;;;6276718;28;20055;-79
2022/03/02 14:50:55;;;;;;;16.92;9.63;;;11.50;43.40;;;;;;6273695;28;20045;-78
2022/03/02 14:53:56;;;;;;;14.80;9.35;;;11.60;43.40;;;;;;6252104;28;20042;-79
2022/03/02 14:57:00;;;;;;;19.45;9.10;;;11.60;42.70;;;;;;6261152;28;20127;-81
2022/03/02 15:00:01;;;;;;;19.35;9.00;;;11.50;41.40;;;;;;6275709;28;20045;-79
2022/03/02 15:03:17;;;;;;;20.00;8.90;;;11.30;42.00;;;;;;6276704;28;20060;-80
2022/03/02 15:06:21;;;;;;;20.23;8.50;;;11.30;42.00;;;;;;6276683;28;20438;-82
2022/03/02 15:09:23;;;;;;;14.90;8.02;;;11.30;41.20;;;;;;6275786;28;20048;-80
2022/03/02 15:12:33;;;;;;;24.95;10.07;;;11.10;41.30;;;;;;6275538;28;20537;-81
2022/03/02 15:15:35;;;;;;;20.27;8.73;;;10.90;41.70;;;;;;6275701;28;20135;-81
2022/03/02 15:18:37;;;;;;;18.58;9.05;;;10.80;42.00;;;;;;6275993;28;20049;-81
2022/03/02 15:21:40;;;;;;;19.90;9.38;;;10.50;42.30;;;;;;6275586;28;20045;-78
2022/03/02 15:24:47;;;;;;;19.48;9.85;;;10.50;42.80;;;;;;6275608;28;20127;-78
2022/03/02 15:28:01;;;;;;;23.40;9.20;;;10.40;43.40;;;;;;6275381;28;20052;-80
2022/03/02 15:31:02;;;;;;;18.33;9.07;;;10.30;44.10;;;;;;6275680;28;20056;-81
2022/03/02 15:34:23;;;;;;;17.55;9.10;;;10.40;44.50;;;;;;6274909;28;20502;-81
2022/03/02 15:37:27;;;;;;;20.10;9.23;;;10.40;44.20;;;;;;6267644;28;20124;-81
2022/03/02 15:40:34;;;;;;;19.88;7.32;;;10.30;44.30;;;;;;6249974;28;20045;-81
2022/03/02 15:43:37;;;;;;;15.73;7.57;;;10.20;44.90;;;;;;6250103;28;20053;-82
2022/03/02 15:46:48;;;;;;;16.45;9.80;;;10.20;45.30;;;;;;6249715;28;20049;-79
2022/03/02 15:49:52;;;;;;;16.73;10.07;;;10.20;45.80;;;;;;6249099;28;20053;-81
2022/03/02 15:52:58;;;;;;;16.15;9.55;;;10.20;46.20;;;;;;6248847;28;20534;-78
2022/03/02 15:56:04;;;;;;;16.83;8.35;;;10.20;46.50;;;;;;6253880;28;20046;-78
2022/03/02 15:59:08;;;;;;;24.33;8.85;;;10.10;46.70;;;;;;6276366;28;20055;-81